Time;durP1;ratioP1;P1;durP2;ratioP2;P2;SDS_P1;SDS_P2;PMS_P1;PMS_P2;Temp;Humidity;BMP_temperature;BMP_pressure;BME280_temperature;BME280_humidity;BME280_pressure;Samples;Min_cycle;Max_cycle;Signal;HPM_P1;HPM_P2
2023/04/13 00:02:24;;;;;;;;;;;;;;;;;;5094900;28;19966;-71
2023/04/13 00:05:28;;;;;;;;;;;;;;;;;;5082838;28;19942;-71
2023/04/13 00:08:30;;;;;;;;;;;;;;;;;;5093395;28;19922;-71
2023/04/13 00:11:33;;;;;;;;;;;;;;;;;;5092908;28;19923;-72
2023/04/13 00:14:38;;;;;;;;;;;;;;;;;;5094418;28;20386;-71
2023/04/13 00:17:43;;;;;;;;;;;;;;;;;;5094253;28;19931;-71
2023/04/13 00:20:47;;;;;;;;;;;;;;;;;;5089955;28;19995;-70
2023/04/13 00:23:52;;;;;;;;;;;;;;;;;;5094888;28;20354;-70
2023/04/13 00:26:56;;;;;;;;;;;;;;;;;;5092321;28;19934;-70
2023/04/13 00:29:58;;;;;;;;;;;;;;;;;;5080816;28;19962;-70
2023/04/13 00:33:05;;;;;;;;;;;;;;;;;;5093890;28;19966;-70
2023/04/13 00:36:08;;;;;;;;;;;;;;;;;;5094545;28;19964;-70
2023/04/13 00:39:12;;;;;;;;;;;;;;;;;;5095134;28;19926;-70
2023/04/13 00:42:15;;;;;;;;;;;;;;;;;;5094578;28;19969;-70
2023/04/13 00:45:18;;;;;;;;;;;;;;;;;;5094632;28;19923;-70
2023/04/13 00:48:22;;;;;;;;;;;;;;;;;;5093818;28;19919;-70
2023/04/13 00:51:25;;;;;;;;;;;;;;;;;;5093592;28;19918;-70
2023/04/13 00:54:28;;;;;;;;;;;;;;;;;;5081927;28;19980;-70
2023/04/13 00:57:31;;;;;;;;;;;;;;;;;;5094323;28;19966;-70
2023/04/13 01:00:37;;;;;;;;;;;;;;;;;;5094399;28;19927;-70
2023/04/13 01:03:41;;;;;;;;;;;;;;;;;;5094438;28;19964;-70
2023/04/13 01:06:44;;;;;;;;;;;;;;;;;;5079373;28;19919;-70
2023/04/13 01:09:49;;;;;;;;;;;;;;;;;;5081584;28;20001;-70
2023/04/13 01:12:52;;;;;;;;;;;;;;;;;;5081545;28;20388;-70
2023/04/13 01:15:54;;;;;;;;;;;;;;;;;;5081504;28;19927;-70
2023/04/13 01:18:57;;;;;;;;;;;;;;;;;;5094018;28;19923;-70
2023/04/13 01:22:00;;;;;;;;;;;;;;;;;;5081379;28;20003;-70
2023/04/13 01:25:04;;;;;;;;;;;;;;;;;;5094230;28;19965;-70
2023/04/13 01:28:07;;;;;;;;;;;;;;;;;;5093894;28;19950;-70
2023/04/13 01:31:11;;;;;;;;;;;;;;;;;;5081350;28;19982;-70
2023/04/13 01:34:13;;;;;;;;;;;;;;;;;;5081264;28;19918;-70
2023/04/13 01:37:16;;;;;;;;;;;;;;;;;;5080662;28;20016;-70
2023/04/13 01:40:19;;;;;;;;;;;;;;;;;;5081140;28;19919;-70
2023/04/13 01:43:26;;;;;;;;;;;;;;;;;;5081087;28;19919;-70
2023/04/13 01:46:39;;;;;;;;;;;;;;;;;;5081019;28;19994;-70
2023/04/13 01:49:51;;;;;;;;;;;;;;;;;;5080978;28;19962;-70
2023/04/13 01:53:17;;;;;;;;;;;;;;;;;;5093550;28;19922;-70
2023/04/13 01:56:21;;;;;;;;;;;;;;;;;;5080998;28;20009;-70
2023/04/13 01:59:28;;;;;;;;;;;;;;;;;;5080734;28;19973;-71
2023/04/13 02:02:31;;;;;;;;;;;;;;;;;;5079955;28;20382;-70
2023/04/13 02:05:35;;;;;;;;;;;;;;;;;;5093400;28;19993;-70
2023/04/13 02:08:39;;;;;;;;;;;;;;;;;;5080797;28;19919;-71
2023/04/13 02:11:43;;;;;;;;;;;;;;;;;;5093240;28;19939;-71
2023/04/13 02:14:46;;;;;;;;;;;;;;;;;;5081057;28;19974;-70
2023/04/13 02:17:49;;;;;;;;;;;;;;;;;;5080483;28;20012;-71
2023/04/13 02:20:52;;;;;;;;;;;;;;;;;;5080629;28;20386;-70
2023/04/13 02:23:56;;;;;;;;;;;;;;;;;;5080514;28;19919;-70
2023/04/13 02:26:59;;;;;;;;;;;;;;;;;;5080476;28;20049;-70
2023/04/13 02:30:02;;;;;;;;;;;;;;;;;;5080579;28;19919;-70
2023/04/13 02:33:08;;;;;;;;;;;;;;;;;;5080840;28;19918;-70
2023/04/13 02:36:11;;;;;;;;;;;;;;;;;;5080540;28;19923;-70
2023/04/13 02:39:19;;;;;;;;;;;;;;;;;;5080498;28;20429;-70
2023/04/13 02:42:22;;;;;;;;;;;;;;;;;;5092993;28;19977;-71
2023/04/13 02:45:25;;;;;;;;;;;;;;;;;;5092963;28;19918;-71
2023/04/13 02:48:28;;;;;;;;;;;;;;;;;;5080291;28;19966;-71
2023/04/13 02:51:32;;;;;;;;;;;;;;;;;;5080290;28;19965;-71
2023/04/13 02:54:35;;;;;;;;;;;;;;;;;;5092735;28;19919;-70
2023/04/13 02:57:41;;;;;;;;;;;;;;;;;;5092772;28;19923;-70
2023/04/13 03:00:43;;;;;;;;;;;;;;;;;;5080583;28;20442;-70
2023/04/13 03:03:49;;;;;;;;;;;;;;;;;;5080217;28;20327;-70
2023/04/13 03:06:53;;;;;;;;;;;;;;;;;;5080147;28;19919;-70
2023/04/13 03:09:56;;;;;;;;;;;;;;;;;;5080167;28;19919;-70
2023/04/13 03:13:00;;;;;;;;;;;;;;;;;;5080386;28;20370;-70
2023/04/13 03:16:03;;;;;;;;;;;;;;;;;;5083911;28;19946;-70
2023/04/13 03:19:06;;;;;;;;;;;;;;;;;;5096262;28;19969;-71
2023/04/13 03:22:11;;;;;;;;;;;;;;;;;;5083628;28;19938;-71
2023/04/13 03:25:19;;;;;;;;;;;;;;;;;;5083606;28;19966;-71
2023/04/13 03:28:23;;;;;;;;;;;;;;;;;;5083592;28;19919;-71
2023/04/13 03:31:27;;;;;;;;;;;;;;;;;;5082302;28;19919;-71
2023/04/13 03:34:30;;;;;;;;;;;;;;;;;;5094657;28;19966;-71
2023/04/13 03:37:39;;;;;;;;;;;;;;;;;;5083556;28;19923;-71
2023/04/13 03:40:49;;;;;;;;;;;;;;;;;;5083404;28;19927;-71
2023/04/13 03:43:52;;;;;;;;;;;;;;;;;;5083349;28;20003;-71
2023/04/13 03:46:55;;;;;;;;;;;;;;;;;;5095733;28;20023;-70
2023/04/13 03:50:03;;;;;;;;;;;;;;;;;;5096071;28;19919;-70
2023/04/13 03:53:09;;;;;;;;;;;;;;;;;;5083207;28;19958;-71
2023/04/13 03:56:12;;;;;;;;;;;;;;;;;;5082849;28;19965;-71
2023/04/13 03:59:15;;;;;;;;;;;;;;;;;;5082904;28;19970;-70
2023/04/13 04:02:18;;;;;;;;;;;;;;;;;;5095543;28;19972;-70
2023/04/13 04:05:21;;;;;;;;;;;;;;;;;;5083143;28;20002;-71
2023/04/13 04:08:30;;;;;;;;;;;;;;;;;;5082992;28;19919;-70
2023/04/13 04:11:36;;;;;;;;;;;;;;;;;;5082538;28;20433;-71
2023/04/13 04:14:42;;;;;;;;;;;;;;;;;;5081477;28;19938;-73
2023/04/13 04:17:51;;;;;;;;;;;;;;;;;;5082400;28;20331;-73
2023/04/13 04:20:54;;;;;;;;;;;;;;;;;;5095012;28;19918;-73
2023/04/13 04:23:59;;;;;;;;;;;;;;;;;;5082148;28;20296;-73
2023/04/13 04:27:04;;;;;;;;;;;;;;;;;;5081775;28;19922;-74
2023/04/13 04:30:09;;;;;;;;;;;;;;;;;;5094521;28;19926;-73
2023/04/13 04:33:13;;;;;;;;;;;;;;;;;;5081924;28;19934;-74
2023/04/13 04:36:17;;;;;;;;;;;;;;;;;;5105723;28;19919;-72
2023/04/13 04:43:55;;;;;;;;;;;;;;;;;;5093327;28;19919;-72
2023/04/13 04:46:59;;;;;;;;;;;;;;;;;;5082034;28;19966;-75
2023/04/13 04:50:02;;;;;;;;;;;;;;;;;;5082027;28;20342;-77
2023/04/13 04:53:09;;;;;;;;;;;;;;;;;;5082009;28;20009;-69
2023/04/13 04:56:12;;;;;;;;;;;;;;;;;;5094489;28;19965;-70
2023/04/13 04:59:19;;;;;;;;;;;;;;;;;;5105101;28;20497;-70
2023/04/13 05:02:34;;;;;;;;;;;;;;;;;;5081745;28;19926;-70
2023/04/13 05:09:50;;;;;;;;;;;;;;;;;;5094321;28;19919;-71
2023/04/13 05:12:54;;;;;;;;;;;;;;;;;;5081830;28;19918;-71
2023/04/13 05:15:58;;;;;;;;;;;;;;;;;;5081779;28;20057;-71
2023/04/13 05:19:02;;;;;;;;;;;;;;;;;;5081429;28;19926;-70
2023/04/13 05:22:20;;;;;;;;;;;;;;;;;;5080875;28;20128;-71
2023/04/13 05:25:28;;;;;;;;;;;;;;;;;;5081054;28;19919;-70
2023/04/13 05:28:35;;;;;;;;;;;;;;;;;;5081436;28;20110;-71
2023/04/13 05:31:39;;;;;;;;;;;;;;;;;;5080553;28;19918;-71
2023/04/13 05:34:42;;;;;;;;;;;;;;;;;;5093476;28;19919;-71
2023/04/13 05:37:49;;;;;;;;;;;;;;;;;;5103610;28;19946;-71
2023/04/13 05:40:57;;;;;;;;;;;;;;;;;;5104633;28;19958;-71
2023/04/13 05:44:00;;;;;;;;;;;;;;;;;;5080956;28;19969;-71
2023/04/13 05:47:06;;;;;;;;;;;;;;;;;;5104498;28;20311;-71
2023/04/13 05:50:10;;;;;;;;;;;;;;;;;;5081002;28;19923;-71
2023/04/13 05:53:12;;;;;;;;;;;;;;;;;;5081312;28;19934;-71
2023/04/13 05:56:24;;;;;;;;;;;;;;;;;;5081205;28;20390;-71
2023/04/13 05:59:27;;;;;;;;;;;;;;;;;;5080659;28;19927;-71
2023/04/13 06:02:30;;;;;;;;;;;;;;;;;;5080838;28;19935;-70
2023/04/13 06:05:35;;;;;;;;;;;;;;;;;;5093385;28;20412;-70
2023/04/13 06:08:38;;;;;;;;;;;;;;;;;;5080691;28;19958;-71
2023/04/13 06:11:41;;;;;;;;;;;;;;;;;;5104295;28;19961;-71
2023/04/13 06:14:44;;;;;;;;;;;;;;;;;;5093384;28;19966;-71
2023/04/13 06:17:47;;;;;;;;;;;;;;;;;;5093174;28;19970;-70
2023/04/13 06:25:18;;;;;;;;;;;;;;;;;;5079382;28;20004;-70
2023/04/13 06:28:27;;;;;;;;;;;;;;;;;;5080881;28;19958;-71
2023/04/13 06:35:47;;;;;;;;;;;;;;;;;;5090984;28;19927;-71
2023/04/13 06:38:50;;;;;;;;;;;;;;;;;;5092938;28;20430;-71
2023/04/13 06:41:53;;;;;;;;;;;;;;;;;;5080439;28;19934;-70
2023/04/13 06:45:16;;;;;;;;;;;;;;;;;;5080463;28;19919;-71
2023/04/13 06:48:19;;;;;;;;;;;;;;;;;;5081197;28;19919;-71
2023/04/13 06:51:26;;;;;;;;;;;;;;;;;;5084350;28;19923;-71
2023/04/13 06:54:30;;;;;;;;;;;;;;;;;;5084450;28;19919;-71
2023/04/13 06:57:39;;;;;;;;;;;;;;;;;;5084242;28;19923;-71
2023/04/13 07:00:42;;;;;;;;;;;;;;;;;;5063975;28;20062;-71
2023/04/13 07:03:45;;;;;;;;;;;;;;;;;;5076445;28;19958;-71
2023/04/13 07:06:50;;;;;;;;;;;;;;;;;;5063111;28;19958;-71
2023/04/13 07:09:53;;;;;;;;;;;;;;;;;;5062767;28;20017;-71
2023/04/13 07:12:56;;;;;;;;;;;;;;;;;;5063783;28;19974;-71
2023/04/13 07:16:02;;;;;;;;;;;;;;;;;;5063550;28;19919;-71
2023/04/13 07:19:05;;;;;;;;;;;;;;;;;;5063584;28;19923;-71
2023/04/13 07:22:08;;;;;;;;;;;;;;;;;;5082996;28;19967;-71
2023/04/13 07:25:11;;;;;;;;;;;;;;;;;;5063367;28;19919;-71
2023/04/13 07:28:14;;;;;;;;;;;;;;;;;;5063604;28;19920;-71
2023/04/13 07:31:17;;;;;;;;;;;;;;;;;;5063181;28;19923;-71
2023/04/13 07:34:25;;;;;;;;;;;;;;;;;;5062852;28;19920;-71
2023/04/13 07:37:29;;;;;;;;;;;;;;;;;;5063352;28;19926;-70
2023/04/13 07:40:34;;;;;;;;;;;;;;;;;;5063589;28;20309;-70
2023/04/13 07:43:40;;;;;;;;;;;;;;;;;;5063369;28;19920;-70
2023/04/13 07:46:46;;;;;;;;;;;;;;;;;;5063120;28;19919;-70
2023/04/13 07:49:49;;;;;;;;;;;;;;;;;;5063328;28;19935;-70
2023/04/13 07:52:55;;;;;;;;;;;;;;;;;;5063194;28;19966;-70
2023/04/13 07:55:59;;;;;;;;;;;;;;;;;;5063393;28;20475;-70
2023/04/13 07:59:02;;;;;;;;;;;;;;;;;;5062755;28;19927;-70
2023/04/13 08:02:05;;;;;;;;;;;;;;;;;;5062654;28;19939;-70
2023/04/13 08:05:11;;;;;;;;;;;;;;;;;;5063234;28;19924;-70
2023/04/13 08:08:14;;;;;;;;;;;;;;;;;;5062755;28;19920;-70
2023/04/13 08:11:18;;;;;;;;;;;;;;;;;;5062807;28;20308;-70
2023/04/13 08:14:22;;;;;;;;;;;;;;;;;;5062662;28;19919;-70
2023/04/13 08:17:25;;;;;;;;;;;;;;;;;;5062518;28;19923;-70
2023/04/13 08:20:28;;;;;;;;;;;;;;;;;;5062605;28;19919;-70
2023/04/13 08:23:32;;;;;;;;;;;;;;;;;;5062733;28;20428;-70
2023/04/13 08:26:35;;;;;;;;;;;;;;;;;;5062429;28;20011;-70
2023/04/13 08:29:37;;;;;;;;;;;;;;;;;;5062408;28;19935;-70
2023/04/13 08:32:40;;;;;;;;;;;;;;;;;;5062642;28;19938;-70
2023/04/13 08:35:43;;;;;;;;;;;;;;;;;;5062143;28;20002;-70
2023/04/13 08:38:48;;;;;;;;;;;;;;;;;;5060578;28;20411;-70
2023/04/13 08:41:51;;;;;;;;;;;;;;;;;;5061633;28;19970;-70
2023/04/13 08:44:56;;;;;;;;;;;;;;;;;;5061942;28;19920;-70
2023/04/13 08:47:59;;;;;;;;;;;;;;;;;;5074079;28;20422;-70
2023/04/13 08:51:02;;;;;;;;;;;;;;;;;;5061708;28;20343;-70
2023/04/13 08:54:06;;;;;;;;;;;;;;;;;;5061916;28;19938;-70
2023/04/13 08:57:12;;;;;;;;;;;;;;;;;;5061565;28;20391;-70
2023/04/13 09:00:16;;;;;;;;;;;;;;;;;;5061706;28;19928;-70
2023/04/13 09:03:20;;;;;;;;;;;;;;;;;;5062099;28;20073;-70
2023/04/13 09:06:25;;;;;;;;;;;;;;;;;;5061650;28;19926;-70
2023/04/13 09:09:28;;;;;;;;;;;;;;;;;;5061712;28;19962;-70
2023/04/13 09:12:31;;;;;;;;;;;;;;;;;;5061376;28;19919;-70
2023/04/13 09:15:34;;;;;;;;;;;;;;;;;;5061359;28;19919;-70
2023/04/13 09:18:51;;;;;;;;;;;;;;;;;;5061359;28;20296;-70
2023/04/13 09:21:54;;;;;;;;;;;;;;;;;;5074042;28;19919;-70
2023/04/13 09:24:57;;;;;;;;;;;;;;;;;;5073546;28;20272;-70
2023/04/13 09:28:00;;;;;;;;;;;;;;;;;;5072334;28;19942;-71
2023/04/13 09:31:04;;;;;;;;;;;;;;;;;;5073317;28;20412;-71
2023/04/13 09:34:07;;;;;;;;;;;;;;;;;;5071265;28;19954;-71
2023/04/13 09:37:11;;;;;;;;;;;;;;;;;;5071697;28;19938;-71
2023/04/13 09:40:15;;;;;;;;;;;;;;;;;;5072315;28;20483;-71
2023/04/13 09:43:18;;;;;;;;;;;;;;;;;;5071932;28;19958;-71
2023/04/13 09:46:21;;;;;;;;;;;;;;;;;;5073405;28;19986;-71
2023/04/13 09:49:24;;;;;;;;;;;;;;;;;;5071646;28;19977;-71
2023/04/13 09:52:27;;;;;;;;;;;;;;;;;;5073584;28;20379;-71
2023/04/13 09:55:30;;;;;;;;;;;;;;;;;;5073300;28;19927;-72
2023/04/13 09:58:32;;;;;;;;;;;;;;;;;;5072974;28;19932;-72
2023/04/13 10:01:36;;;;;;;;;;;;;;;;;;5072660;28;19919;-71
2023/04/13 10:04:39;;;;;;;;;;;;;;;;;;5073125;28;20070;-71
2023/04/13 10:07:42;;;;;;;;;;;;;;;;;;5073130;28;20012;-71
2023/04/13 10:10:45;;;;;;;;;;;;;;;;;;5073149;28;20000;-71
2023/04/13 10:13:48;;;;;;;;;;;;;;;;;;5073083;28;19935;-71
2023/04/13 10:16:52;;;;;;;;;;;;;;;;;;5073320;28;19966;-72
2023/04/13 10:19:55;;;;;;;;;;;;;;;;;;5073007;28;19970;-71
2023/04/13 10:22:59;;;;;;;;;;;;;;;;;;5074773;28;20346;-71
2023/04/13 10:26:03;;;;;;;;;;;;;;;;;;5079665;28;19967;-70
2023/04/13 10:29:07;;;;;;;;;;;;;;;;;;5079676;28;20560;-71
2023/04/13 10:32:10;;;;;;;;;;;;;;;;;;5079576;28;20435;-71
2023/04/13 10:35:14;;;;;;;;;;;;;;;;;;5079841;28;19963;-71
2023/04/13 10:38:17;;;;;;;;;;;;;;;;;;5079511;28;19994;-71
2023/04/13 10:41:20;;;;;;;;;;;;;;;;;;5079505;28;19919;-71
2023/04/13 10:44:23;;;;;;;;;;;;;;;;;;5079749;28;19919;-71
2023/04/13 10:47:26;;;;;;;;;;;;;;;;;;5079463;28;19989;-71
2023/04/13 10:50:29;;;;;;;;;;;;;;;;;;5077314;28;19919;-71
2023/04/13 10:53:33;;;;;;;;;;;;;;;;;;5058671;28;19983;-71
2023/04/13 10:56:36;;;;;;;;;;;;;;;;;;5077404;28;19927;-71
2023/04/13 10:59:39;;;;;;;;;;;;;;;;;;5078715;28;19928;-71
2023/04/13 11:02:43;;;;;;;;;;;;;;;;;;5072858;28;20292;-71
2023/04/13 11:05:46;;;;;;;;;;;;;;;;;;5077603;28;19966;-71
2023/04/13 11:08:49;;;;;;;;;;;;;;;;;;5059121;28;20529;-72
2023/04/13 11:11:51;;;;;;;;;;;;;;;;;;5066095;28;19919;-71
2023/04/13 11:14:55;;;;;;;;;;;;;;;;;;5079044;28;20410;-71
2023/04/13 11:17:58;;;;;;;;;;;;;;;;;;5079131;28;19962;-71
2023/04/13 11:21:02;;;;;;;;;;;;;;;;;;5079205;28;19939;-71
2023/04/13 11:24:05;;;;;;;;;;;;;;;;;;5079335;28;19966;-71
2023/04/13 11:27:09;;;;;;;;;;;;;;;;;;5079145;28;19919;-71
2023/04/13 11:30:12;;;;;;;;;;;;;;;;;;5079034;28;19919;-71
2023/04/13 11:33:15;;;;;;;;;;;;;;;;;;5079401;28;20425;-71
2023/04/13 11:36:22;;;;;;;;;;;;;;;;;;5075934;28;19932;-71
2023/04/13 11:39:26;;;;;;;;;;;;;;;;;;5063286;28;19923;-71
2023/04/13 11:42:29;;;;;;;;;;;;;;;;;;5075722;28;19935;-71
2023/04/13 11:45:31;;;;;;;;;;;;;;;;;;5075653;28;19938;-71
2023/04/13 11:48:34;;;;;;;;;;;;;;;;;;5070244;28;20451;-71
2023/04/13 11:51:38;;;;;;;;;;;;;;;;;;5075425;28;19966;-71
2023/04/13 11:54:43;;;;;;;;;;;;;;;;;;5075481;28;19999;-71
2023/04/13 11:57:46;;;;;;;;;;;;;;;;;;5075413;28;20391;-71
2023/04/13 12:00:49;;;;;;;;;;;;;;;;;;5071795;28;19975;-72
2023/04/13 12:03:52;;;;;;;;;;;;;;;;;;5075626;28;20276;-73
2023/04/13 12:06:55;;;;;;;;;;;;;;;;;;5075193;28;19918;-76
2023/04/13 12:09:58;;;;;;;;;;;;;;;;;;5075137;28;19958;-75
2023/04/13 12:13:01;;;;;;;;;;;;;;;;;;5075014;28;19924;-76
2023/04/13 12:16:04;;;;;;;;;;;;;;;;;;5074740;28;19920;-75
2023/04/13 12:19:07;;;;;;;;;;;;;;;;;;5074642;28;19970;-77
2023/04/13 12:22:11;;;;;;;;;;;;;;;;;;5074313;28;20396;-75
2023/04/13 12:25:13;;;;;;;;;;;;;;;;;;5074954;28;19919;-76
2023/04/13 12:28:20;;;;;;;;;;;;;;;;;;5074553;28;19919;-77
2023/04/13 12:31:23;;;;;;;;;;;;;;;;;;5074324;28;19920;-75
2023/04/13 12:34:26;;;;;;;;;;;;;;;;;;5074711;28;20414;-74
2023/04/13 12:37:29;;;;;;;;;;;;;;;;;;5075168;28;19978;-73
2023/04/13 12:40:33;;;;;;;;;;;;;;;;;;5075224;28;19919;-74
2023/04/13 12:43:36;;;;;;;;;;;;;;;;;;5074729;28;19965;-75
2023/04/13 12:46:38;;;;;;;;;;;;;;;;;;5074339;28;19965;-73
2023/04/13 12:49:42;;;;;;;;;;;;;;;;;;5069491;28;19965;-76
2023/04/13 12:52:44;;;;;;;;;;;;;;;;;;5074416;28;19966;-74
2023/04/13 12:55:47;;;;;;;;;;;;;;;;;;5074395;28;20334;-77
2023/04/13 12:58:50;;;;;;;;;;;;;;;;;;5061727;28;19927;-74
2023/04/13 13:01:52;;;;;;;;;;;;;;;;;;5074175;28;20037;-75
2023/04/13 13:04:56;;;;;;;;;;;;;;;;;;5061642;28;20244;-76
2023/04/13 13:07:58;;;;;;;;;;;;;;;;;;5074120;28;19966;-75
2023/04/13 13:11:01;;;;;;;;;;;;;;;;;;5074250;28;19923;-78
2023/04/13 13:14:03;;;;;;;;;;;;;;;;;;5049638;28;19919;-76
2023/04/13 13:17:07;;;;;;;;;;;;;;;;;;5061321;28;19966;-73
2023/04/13 13:20:10;;;;;;;;;;;;;;;;;;5073894;28;19945;-79
2023/04/13 13:23:13;;;;;;;;;;;;;;;;;;5073782;28;20390;-77
2023/04/13 13:26:16;;;;;;;;;;;;;;;;;;5073774;28;19939;-78
2023/04/13 13:29:22;;;;;;;;;;;;;;;;;;5073556;28;19988;-78
2023/04/13 13:32:28;;;;;;;;;;;;;;;;;;5064036;28;19923;-78
2023/04/13 13:35:32;;;;;;;;;;;;;;;;;;5060766;28;19919;-78
2023/04/13 13:38:35;;;;;;;;;;;;;;;;;;5073085;28;20431;-78
2023/04/13 13:41:38;;;;;;;;;;;;;;;;;;5073012;28;19919;-79
2023/04/13 13:44:41;;;;;;;;;;;;;;;;;;5072370;28;19966;-79
2023/04/13 13:47:45;;;;;;;;;;;;;;;;;;5073136;28;20609;-78
2023/04/13 13:50:49;;;;;;;;;;;;;;;;;;5060489;28;19918;-79
2023/04/13 13:53:52;;;;;;;;;;;;;;;;;;5060868;28;20046;-79
2023/04/13 13:56:55;;;;;;;;;;;;;;;;;;5072749;28;19920;-80
2023/04/13 13:59:59;;;;;;;;;;;;;;;;;;5072648;28;20013;-79
2023/04/13 14:03:01;;;;;;;;;;;;;;;;;;5072502;28;19927;-77
2023/04/13 14:06:05;;;;;;;;;;;;;;;;;;5073010;28;20415;-76
2023/04/13 14:09:08;;;;;;;;;;;;;;;;;;5072824;28;19958;-76
2023/04/13 14:12:11;;;;;;;;;;;;;;;;;;5072458;28;19923;-76
2023/04/13 14:15:14;;;;;;;;;;;;;;;;;;5072897;28;19970;-77
2023/04/13 14:18:16;;;;;;;;;;;;;;;;;;5072117;28;19983;-78
2023/04/13 14:21:20;;;;;;;;;;;;;;;;;;5072488;28;19966;-79
2023/04/13 14:24:23;;;;;;;;;;;;;;;;;;5071907;28;19947;-78
2023/04/13 14:27:25;;;;;;;;;;;;;;;;;;5072131;28;19966;-78
2023/04/13 14:30:29;;;;;;;;;;;;;;;;;;5070862;28;19920;-78
2023/04/13 14:33:31;;;;;;;;;;;;;;;;;;5072071;28;19920;-77
2023/04/13 14:36:34;;;;;;;;;;;;;;;;;;5072902;28;20280;-77
2023/04/13 14:39:37;;;;;;;;;;;;;;;;;;5072786;28;19924;-77
2023/04/13 14:42:40;;;;;;;;;;;;;;;;;;5072578;28;19966;-77
2023/04/13 14:45:43;;;;;;;;;;;;;;;;;;5071249;28;19934;-79
2023/04/13 14:48:46;;;;;;;;;;;;;;;;;;5072167;28;19919;-77
2023/04/13 14:51:49;;;;;;;;;;;;;;;;;;5072806;28;20338;-77
2023/04/13 14:54:55;;;;;;;;;;;;;;;;;;5072524;28;19918;-77
2023/04/13 14:57:58;;;;;;;;;;;;;;;;;;5072618;28;19923;-78
2023/04/13 15:01:03;;;;;;;;;;;;;;;;;;5072838;28;19923;-77
2023/04/13 15:04:06;;;;;;;;;;;;;;;;;;5072771;28;20007;-71
2023/04/13 15:07:09;;;;;;;;;;;;;;;;;;5060370;28;20327;-76
2023/04/13 15:10:13;;;;;;;;;;;;;;;;;;5056263;28;19923;-77
2023/04/13 15:13:16;;;;;;;;;;;;;;;;;;5056226;28;20273;-78
2023/04/13 15:16:19;;;;;;;;;;;;;;;;;;5056316;28;20407;-79
2023/04/13 15:19:23;;;;;;;;;;;;;;;;;;5056266;28;20388;-77
2023/04/13 15:22:26;;;;;;;;;;;;;;;;;;5056570;28;19963;-79
2023/04/13 15:25:29;;;;;;;;;;;;;;;;;;5055789;28;20284;-79
2023/04/13 15:28:32;;;;;;;;;;;;;;;;;;5056110;28;19920;-80
2023/04/13 15:31:35;;;;;;;;;;;;;;;;;;5043905;28;20336;-76
2023/04/13 15:34:39;;;;;;;;;;;;;;;;;;5056033;28;19919;-78
2023/04/13 15:37:42;;;;;;;;;;;;;;;;;;5055971;28;20059;-78
2023/04/13 15:40:45;;;;;;;;;;;;;;;;;;5055961;28;20456;-75
2023/04/13 15:43:48;;;;;;;;;;;;;;;;;;5055800;28;19921;-77
2023/04/13 15:46:51;;;;;;;;;;;;;;;;;;5054997;28;19971;-72
2023/04/13 15:49:54;;;;;;;;;;;;;;;;;;5055616;28;19928;-76
2023/04/13 15:52:56;;;;;;;;;;;;;;;;;;5055625;28;20435;-73
2023/04/13 15:55:59;;;;;;;;;;;;;;;;;;5075601;28;19919;-75
2023/04/13 15:59:02;;;;;;;;;;;;;;;;;;5075045;28;19928;-74
2023/04/13 16:02:05;;;;;;;;;;;;;;;;;;5075741;28;19974;-75
2023/04/13 16:05:08;;;;;;;;;;;;;;;;;;5075667;28;19920;-76
2023/04/13 16:08:17;;;;;;;;;;;;;;;;;;5075315;28;19966;-77
2023/04/13 16:11:20;;;;;;;;;;;;;;;;;;5074271;28;19991;-77
2023/04/13 16:14:24;;;;;;;;;;;;;;;;;;5075170;28;20062;-77
2023/04/13 16:17:30;;;;;;;;;;;;;;;;;;5075074;28;19920;-77
2023/04/13 16:20:34;;;;;;;;;;;;;;;;;;5073635;28;19975;-79
2023/04/13 16:23:37;;;;;;;;;;;;;;;;;;5075391;28;19982;-78
2023/04/13 16:26:40;;;;;;;;;;;;;;;;;;5070421;28;20399;-78
2023/04/13 16:29:44;;;;;;;;;;;;;;;;;;5075018;28;19963;-78
2023/04/13 16:32:48;;;;;;;;;;;;;;;;;;5062851;28;20335;-76
2023/04/13 16:35:52;;;;;;;;;;;;;;;;;;5072051;28;19959;-76
2023/04/13 16:38:56;;;;;;;;;;;;;;;;;;5075702;28;20391;-76
2023/04/13 16:42:00;;;;;;;;;;;;;;;;;;5076149;28;19931;-77
2023/04/13 16:45:06;;;;;;;;;;;;;;;;;;5075113;28;19921;-76
2023/04/13 16:48:09;;;;;;;;;;;;;;;;;;5061440;28;19923;-76
2023/04/13 16:51:14;;;;;;;;;;;;;;;;;;5055049;28;19919;-76
2023/04/13 16:54:18;;;;;;;;;;;;;;;;;;5054338;28;19966;-77
2023/04/13 16:57:20;;;;;;;;;;;;;;;;;;5054413;28;19920;-76
2023/04/13 17:00:24;;;;;;;;;;;;;;;;;;5033280;28;20010;-75
2023/04/13 17:03:27;;;;;;;;;;;;;;;;;;5034843;28;19958;-76
2023/04/13 17:06:30;;;;;;;;;;;;;;;;;;5034745;28;19920;-76
2023/04/13 17:09:34;;;;;;;;;;;;;;;;;;5034475;28;20051;-75
2023/04/13 17:12:37;;;;;;;;;;;;;;;;;;5034245;28;19927;-76
2023/04/13 17:15:41;;;;;;;;;;;;;;;;;;5034108;28;19919;-75
2023/04/13 17:18:44;;;;;;;;;;;;;;;;;;5034107;28;20006;-75
2023/04/13 17:21:47;;;;;;;;;;;;;;;;;;5044947;28;20410;-76
2023/04/13 17:24:50;;;;;;;;;;;;;;;;;;5030920;28;19967;-76
2023/04/13 17:27:53;;;;;;;;;;;;;;;;;;5033925;28;19963;-77
2023/04/13 17:30:56;;;;;;;;;;;;;;;;;;5034106;28;19920;-75
2023/04/13 17:34:00;;;;;;;;;;;;;;;;;;5034181;28;19919;-74
2023/04/13 17:37:03;;;;;;;;;;;;;;;;;;5053281;28;19919;-74
2023/04/13 17:40:07;;;;;;;;;;;;;;;;;;5052899;28;19963;-74
2023/04/13 17:43:11;;;;;;;;;;;;;;;;;;5040994;28;19971;-75
2023/04/13 17:46:14;;;;;;;;;;;;;;;;;;5053026;28;19982;-76
2023/04/13 17:49:17;;;;;;;;;;;;;;;;;;5053116;28;19919;-75
2023/04/13 17:52:20;;;;;;;;;;;;;;;;;;5053150;28;19923;-74
2023/04/13 17:55:23;;;;;;;;;;;;;;;;;;5053021;28;19919;-74
2023/04/13 17:58:26;;;;;;;;;;;;;;;;;;5063290;28;19977;-74
2023/04/13 18:01:29;;;;;;;;;;;;;;;;;;5093336;28;20334;-74
2023/04/13 18:04:32;;;;;;;;;;;;;;;;;;5093263;28;19919;-73
2023/04/13 18:07:36;;;;;;;;;;;;;;;;;;5092710;28;19966;-73
2023/04/13 18:10:38;;;;;;;;;;;;;;;;;;5093169;28;19989;-72
2023/04/13 18:13:41;;;;;;;;;;;;;;;;;;5092158;28;20342;-73
2023/04/13 18:16:45;;;;;;;;;;;;;;;;;;5093441;28;20515;-74
2023/04/13 18:19:49;;;;;;;;;;;;;;;;;;5092964;28;20026;-73
2023/04/13 18:22:53;;;;;;;;;;;;;;;;;;5093036;28;20433;-74
2023/04/13 18:25:56;;;;;;;;;;;;;;;;;;5093062;28;20385;-73
2023/04/13 18:28:58;;;;;;;;;;;;;;;;;;5093068;28;20042;-73
2023/04/13 18:32:02;;;;;;;;;;;;;;;;;;5092639;28;19919;-76
2023/04/13 18:35:05;;;;;;;;;;;;;;;;;;5084351;28;19919;-75
2023/04/13 18:38:08;;;;;;;;;;;;;;;;;;5092753;28;19922;-73
2023/04/13 18:44:44;;;;;;;;;;;;;;;;;;5093024;28;19923;-74
2023/04/13 18:47:48;;;;;;;;;;;;;;;;;;5096624;28;20295;-74
2023/04/13 18:50:51;;;;;;;;;;;;;;;;;;5096690;28;19919;-72
2023/04/13 18:53:53;;;;;;;;;;;;;;;;;;5096746;28;19934;-72
2023/04/13 18:56:56;;;;;;;;;;;;;;;;;;5107605;28;20390;-73
2023/04/13 18:59:59;;;;;;;;;;;;;;;;;;5096489;28;19969;-72
2023/04/13 19:03:03;;;;;;;;;;;;;;;;;;5096711;28;20004;-73
2023/04/13 19:06:06;;;;;;;;;;;;;;;;;;5096110;28;19970;-72
2023/04/13 19:09:09;;;;;;;;;;;;;;;;;;5096278;28;19969;-71
2023/04/13 19:12:13;;;;;;;;;;;;;;;;;;5107287;28;20532;-72
2023/04/13 19:15:17;;;;;;;;;;;;;;;;;;5096185;28;20477;-72
2023/04/13 19:18:20;;;;;;;;;;;;;;;;;;5096237;28;19924;-74
2023/04/13 19:21:23;;;;;;;;;;;;;;;;;;5096240;28;19966;-71
2023/04/13 19:24:26;;;;;;;;;;;;;;;;;;5096500;28;19920;-72
2023/04/13 19:27:29;;;;;;;;;;;;;;;;;;5096505;28;19922;-71
2023/04/13 19:30:32;;;;;;;;;;;;;;;;;;5096481;28;20049;-74
2023/04/13 19:33:35;;;;;;;;;;;;;;;;;;5096407;28;19999;-74
2023/04/13 19:36:39;;;;;;;;;;;;;;;;;;5096643;28;19962;-74
2023/04/13 19:39:42;;;;;;;;;;;;;;;;;;5096196;28;20029;-74
2023/04/13 19:42:45;;;;;;;;;;;;;;;;;;5096237;28;19923;-73
2023/04/13 19:45:48;;;;;;;;;;;;;;;;;;5096445;28;19919;-73
2023/04/13 19:48:50;;;;;;;;;;;;;;;;;;5096096;28;20407;-74
2023/04/13 19:51:53;;;;;;;;;;;;;;;;;;5095913;28;19956;-74
2023/04/13 19:54:56;;;;;;;;;;;;;;;;;;5095818;28;20335;-74
2023/04/13 19:58:00;;;;;;;;;;;;;;;;;;5095361;28;19923;-75
2023/04/13 20:01:06;;;;;;;;;;;;;;;;;;5092909;28;19919;-74
2023/04/13 20:04:10;;;;;;;;;;;;;;;;;;5082874;28;19922;-74
2023/04/13 20:07:13;;;;;;;;;;;;;;;;;;5094619;28;20390;-74
2023/04/13 20:10:16;;;;;;;;;;;;;;;;;;5094515;28;19919;-74
2023/04/13 20:13:19;;;;;;;;;;;;;;;;;;5079593;28;19919;-74
2023/04/13 20:16:25;;;;;;;;;;;;;;;;;;5094615;28;19919;-74
2023/04/13 20:19:28;;;;;;;;;;;;;;;;;;5093378;28;19977;-74
2023/04/13 20:22:37;;;;;;;;;;;;;;;;;;5094371;28;19922;-74
2023/04/13 20:25:44;;;;;;;;;;;;;;;;;;5093111;28;19974;-74
2023/04/13 20:28:51;;;;;;;;;;;;;;;;;;5093668;28;19920;-74
2023/04/13 20:31:54;;;;;;;;;;;;;;;;;;5093487;28;19919;-73
2023/04/13 20:34:58;;;;;;;;;;;;;;;;;;5091440;28;19919;-73
2023/04/13 20:38:01;;;;;;;;;;;;;;;;;;5093818;28;19943;-73
2023/04/13 20:41:03;;;;;;;;;;;;;;;;;;5081300;28;19923;-74
2023/04/13 20:44:10;;;;;;;;;;;;;;;;;;5091826;28;19935;-74
2023/04/13 20:47:12;;;;;;;;;;;;;;;;;;5093101;28;19943;-74
2023/04/13 20:50:20;;;;;;;;;;;;;;;;;;5091818;28;19973;-74
2023/04/13 20:53:23;;;;;;;;;;;;;;;;;;5093449;28;20012;-74
2023/04/13 20:56:26;;;;;;;;;;;;;;;;;;5093341;28;19919;-73
2023/04/13 20:59:29;;;;;;;;;;;;;;;;;;5091707;28;19928;-74
2023/04/13 21:02:33;;;;;;;;;;;;;;;;;;5092676;28;19919;-74
2023/04/13 21:05:36;;;;;;;;;;;;;;;;;;5093064;28;19973;-74
2023/04/13 21:08:38;;;;;;;;;;;;;;;;;;5090259;28;19919;-73
2023/04/13 21:11:43;;;;;;;;;;;;;;;;;;5091001;28;20552;-73
2023/04/13 21:14:46;;;;;;;;;;;;;;;;;;5091460;28;19963;-74
2023/04/13 21:17:49;;;;;;;;;;;;;;;;;;5091868;28;19919;-74